Time;durP1;ratioP1;P1;durP2;ratioP2;P2;SDS_P1;SDS_P2;PMS_P1;PMS_P2;Temp;Humidity;BMP_temperature;BMP_pressure;BME280_temperature;BME280_humidity;BME280_pressure;Samples;Min_cycle;Max_cycle;Signal;HPM_P1;HPM_P2
2023/06/09 00:01:37;;;;;;;1999.90;999.90;;;;;;;25.58;37.58;101666.41;5056662;28;20025;-73
2023/06/09 00:04:03;;;;;;;1999.90;999.90;;;;;;;25.22;38.31;101668.50;5037420;28;20021;-74
2023/06/09 00:06:30;;;;;;;1999.90;999.90;;;;;;;25.78;37.02;101657.16;5036115;28;20028;-73
2023/06/09 00:08:57;;;;;;;1999.90;999.90;;;;;;;24.28;39.84;101662.22;5054431;28;20025;-74
2023/06/09 00:11:24;;;;;;;1999.90;999.90;;;;;;;24.96;38.61;101647.75;5050860;28;20043;-73
2023/06/09 00:13:49;;;;;;;1999.90;999.90;;;;;;;24.25;39.45;101647.22;5073618;28;20030;-73
2023/06/09 00:16:15;;;;;;;1999.90;999.90;;;;;;;24.89;39.24;101648.13;5074155;28;20103;-74
2023/06/09 00:18:41;;;;;;;1999.90;999.90;;;;;;;24.85;38.97;101651.91;5050104;28;20033;-74
2023/06/09 00:21:07;;;;;;;1999.90;999.90;;;;;;;24.93;38.67;101650.59;5056007;28;20017;-74
2023/06/09 00:23:32;;;;;;;1999.90;999.90;;;;;;;24.07;39.88;101648.22;5056449;28;20550;-74
2023/06/09 00:25:58;;;;;;;1999.90;999.90;;;;;;;23.83;40.78;101640.56;5055318;28;20476;-75
2023/06/09 00:28:23;;;;;;;1999.90;999.90;;;;;;;23.86;40.20;101641.28;5073461;28;20021;-74
2023/06/09 00:30:49;;;;;;;1999.90;999.90;;;;;;;23.76;40.36;101645.34;5055845;28;20040;-73
2023/06/09 00:33:14;;;;;;;1999.90;999.90;;;;;;;24.18;39.95;101641.38;5054799;28;20111;-74
2023/06/09 00:35:40;;;;;;;1999.90;999.90;;;;;;;24.07;40.47;101638.44;5073381;28;20032;-74
2023/06/09 00:38:05;;;;;;;1999.90;999.90;;;;;;;25.01;37.87;101640.31;5055822;28;20098;-73
2023/06/09 00:40:30;;;;;;;1999.90;999.90;;;;;;;24.45;39.35;101643.44;5055229;28;20024;-73
2023/06/09 00:42:56;;;;;;;1999.90;999.90;;;;;;;24.84;39.08;101644.84;5073757;28;20107;-73
2023/06/09 00:45:21;;;;;;;1999.90;999.90;;;;;;;24.37;39.04;101640.34;5055253;28;20483;-74
2023/06/09 00:47:47;;;;;;;1999.90;999.90;;;;;;;24.97;38.75;101641.47;5052971;28;20023;-74
2023/06/09 00:50:15;;;;;;;1999.90;999.90;;;;;;;24.35;39.32;101642.25;5052608;28;20511;-74
2023/06/09 00:52:41;;;;;;;1999.90;999.90;;;;;;;24.60;39.19;101640.88;5054922;28;20024;-74
2023/06/09 00:55:08;;;;;;;1999.90;999.90;;;;;;;24.88;38.60;101643.72;5035180;28;20169;-75
2023/06/09 00:57:34;;;;;;;1999.90;999.90;;;;;;;25.36;37.62;101646.31;5035805;28;20024;-73
2023/06/09 01:00:06;;;;;;;1999.90;999.90;;;;;;;24.68;39.04;101639.50;5035457;28;20396;-74
2023/06/09 01:02:32;;;;;;;1999.90;999.90;;;;;;;24.13;40.81;101632.72;5040910;28;20450;-74
2023/06/09 01:04:57;;;;;;;1999.90;999.90;;;;;;;23.66;40.69;101634.31;5054454;28;20028;-73
2023/06/09 01:07:38;;;;;;;1999.90;999.90;;;;;;;24.89;39.07;101637.44;5055200;28;20016;-73
2023/06/09 01:10:25;;;;;;;1999.90;999.90;;;;;;;24.96;38.00;101631.69;5050792;28;20040;-74
2023/06/09 01:13:06;;;;;;;1999.90;999.90;;;;;;;24.77;39.38;101624.78;5034970;28;20032;-74
2023/06/09 01:15:45;;;;;;;1999.90;999.90;;;;;;;24.71;39.13;101633.97;5034761;28;20033;-74
2023/06/09 01:18:13;;;;;;;1999.90;999.90;;;;;;;24.49;39.28;101623.63;5034965;28;20036;-74
2023/06/09 01:20:48;;;;;;;1999.90;999.90;;;;;;;23.83;40.81;101635.22;5035287;28;20025;-73
2023/06/09 01:23:32;;;;;;;1999.90;999.90;;;;;;;23.96;39.83;101630.09;5066145;28;20030;-74
2023/06/09 01:25:59;;;;;;;1999.90;999.90;;;;;;;23.18;41.20;101627.91;5055039;28;20104;-73
2023/06/09 01:28:26;;;;;;;1999.90;999.90;;;;;;;24.22;39.65;101631.34;5040780;28;20024;-74
2023/06/09 01:30:52;;;;;;;1999.90;999.90;;;;;;;24.67;38.93;101623.56;5051958;28;20040;-74
2023/06/09 01:33:21;;;;;;;1999.90;999.90;;;;;;;24.67;38.94;101626.22;5035213;28;20092;-74
2023/06/09 01:35:48;;;;;;;1999.90;999.90;;;;;;;24.14;39.67;101634.47;5034155;28;20025;-73
2023/06/09 01:38:15;;;;;;;1999.90;999.90;;;;;;;24.69;38.72;101624.34;5061062;28;20029;-74
2023/06/09 01:40:42;;;;;;;1999.90;999.90;;;;;;;24.37;39.88;101629.66;5072448;28;20107;-74
2023/06/09 01:43:07;;;;;;;1999.90;999.90;;;;;;;22.62;42.93;101619.09;5054400;28;20028;-74
2023/06/09 01:45:32;;;;;;;1999.90;999.90;;;;;;;23.27;41.38;101615.91;5053976;28;20028;-74
2023/06/09 01:47:59;;;;;;;1999.90;999.90;;;;;;;23.57;40.82;101609.94;5050990;28;20028;-74
2023/06/09 01:50:35;;;;;;;1999.90;999.90;;;;;;;24.09;39.44;101609.81;5034012;28;20121;-74
2023/06/09 01:53:14;;;;;;;1999.90;999.90;;;;;;;24.02;39.29;101603.09;5052745;28;20036;-74
2023/06/09 01:55:51;;;;;;;1999.90;999.90;;;;;;;23.37;41.13;101609.16;5051613;28;20058;-74
2023/06/09 01:58:28;;;;;;;1999.90;999.90;;;;;;;24.28;38.99;101598.13;5033817;28;20534;-74
2023/06/09 02:00:56;;;;;;;1999.90;999.90;;;;;;;23.95;39.41;101602.56;5053343;28;20041;-74
2023/06/09 02:03:23;;;;;;;1999.90;999.90;;;;;;;23.81;40.04;101603.28;5045628;28;20111;-74
2023/06/09 02:05:51;;;;;;;1999.90;999.90;;;;;;;21.95;43.88;101599.97;5033897;28;20531;-74
2023/06/09 02:08:17;;;;;;;1999.90;999.90;;;;;;;23.14;41.30;101600.53;5034478;28;20017;-74
2023/06/09 02:10:43;;;;;;;1999.90;999.90;;;;;;;23.14;41.42;101605.00;5035270;28;20051;-75
2023/06/09 02:13:18;;;;;;;1999.90;999.90;;;;;;;21.58;44.75;101620.25;5033572;28;20110;-74
2023/06/09 02:15:44;;;;;;;1999.90;999.90;;;;;;;22.25;43.47;101603.00;5045329;28;20472;-75
2023/06/09 02:18:11;;;;;;;1999.90;999.90;;;;;;;22.42;43.16;101596.94;5051924;28;20044;-74
2023/06/09 02:20:38;;;;;;;1999.90;999.90;;;;;;;23.72;40.89;101601.09;5053387;28;20028;-74
2023/06/09 02:23:04;;;;;;;1999.90;999.90;;;;;;;22.73;42.27;101603.44;5042024;28;20032;-74
2023/06/09 02:25:32;;;;;;;1999.90;999.90;;;;;;;21.95;44.11;101597.31;5051085;28;20098;-74
2023/06/09 02:27:58;;;;;;;1999.90;999.90;;;;;;;23.36;41.71;101602.09;5036602;28;20029;-75
2023/06/09 02:30:23;;;;;;;1999.90;999.90;;;;;;;23.79;40.53;101597.16;5034002;28;20476;-74
2023/06/09 02:32:49;;;;;;;1999.90;999.90;;;;;;;24.39;39.34;101603.72;5050387;28;20029;-74
2023/06/09 02:35:14;;;;;;;1999.90;999.90;;;;;;;23.85;40.08;101601.28;5055864;28;20514;-74
2023/06/09 02:37:41;;;;;;;1999.90;999.90;;;;;;;22.74;42.12;101598.94;5070918;28;20439;-74
2023/06/09 02:40:10;;;;;;;1999.90;999.90;;;;;;;23.59;40.80;101595.56;5053327;28;20052;-74
2023/06/09 02:42:35;;;;;;;1999.90;999.90;;;;;;;23.65;39.97;101599.72;5047827;28;20017;-74
2023/06/09 02:45:01;;;;;;;1999.90;999.90;;;;;;;24.06;39.53;101591.31;5043028;28;20036;-75
2023/06/09 02:47:26;;;;;;;1999.90;999.90;;;;;;;23.01;41.80;101594.06;5052629;28;20034;-74
2023/06/09 02:49:52;;;;;;;1999.90;999.90;;;;;;;23.95;40.06;101591.03;5052917;28;20020;-74
2023/06/09 02:52:17;;;;;;;1999.90;999.90;;;;;;;23.53;40.36;101583.41;5070725;28;20119;-74
2023/06/09 02:54:43;;;;;;;1999.90;999.90;;;;;;;23.66;39.80;101586.28;5052241;28;20550;-74
2023/06/09 02:57:09;;;;;;;1999.90;999.90;;;;;;;23.79;39.76;101588.28;5049886;28;20041;-74
2023/06/09 02:59:37;;;;;;;1999.90;999.90;;;;;;;23.20;41.10;101592.22;5033097;28;20029;-74
2023/06/09 03:02:02;;;;;;;1999.90;999.90;;;;;;;23.83;40.02;101580.03;5033564;28;20039;-74
2023/06/09 03:04:29;;;;;;;1999.90;999.90;;;;;;;22.76;41.35;101584.63;5033807;28;20028;-75
2023/06/09 03:06:54;;;;;;;1999.90;999.90;;;;;;;22.53;42.06;101572.44;5050343;28;20260;-74
2023/06/09 03:09:20;;;;;;;1999.90;999.90;;;;;;;23.07;41.04;101576.88;5041881;28;20032;-74
2023/06/09 03:11:46;;;;;;;1999.90;999.90;;;;;;;23.90;39.56;101574.41;5052710;28;20028;-74
2023/06/09 03:14:12;;;;;;;1999.90;999.90;;;;;;;22.10;42.75;101575.31;5053337;28;20025;-74
2023/06/09 03:16:37;;;;;;;1999.90;999.90;;;;;;;23.39;40.13;101572.59;5053058;28;20027;-74
2023/06/09 03:19:03;;;;;;;1999.90;999.90;;;;;;;22.27;43.04;101586.97;5042826;28;20033;-74
2023/06/09 03:21:28;;;;;;;1999.90;999.90;;;;;;;23.34;40.74;101587.97;5051893;28;20040;-73
2023/06/09 03:23:53;;;;;;;1999.90;999.90;;;;;;;23.85;39.27;101594.16;5051784;28;20106;-75
2023/06/09 03:26:19;;;;;;;1999.90;999.90;;;;;;;23.61;39.18;101588.31;5038056;28;20029;-75
2023/06/09 03:28:44;;;;;;;1999.90;999.90;;;;;;;23.70;39.43;101587.84;5069147;28;20031;-74
2023/06/09 03:31:10;;;;;;;1999.90;999.90;;;;;;;23.14;39.91;101589.88;5070772;28;20150;-75
2023/06/09 03:33:35;;;;;;;1999.90;999.90;;;;;;;21.76;42.51;101598.19;5070498;28;20111;-75
2023/06/09 03:36:02;;;;;;;1999.90;999.90;;;;;;;22.90;40.61;101591.06;5051599;28;20032;-75
2023/06/09 03:38:28;;;;;;;1999.90;999.90;;;;;;;22.50;41.21;101586.78;5032237;28;20416;-75
2023/06/09 03:40:53;;;;;;;1999.90;999.90;;;;;;;23.08;39.64;101595.50;5032574;28;20025;-75
2023/06/09 03:43:18;;;;;;;1999.90;999.90;;;;;;;23.19;39.79;101582.50;5054943;28;20097;-74
2023/06/09 03:45:44;;;;;;;1999.90;999.90;;;;;;;23.52;39.13;101583.47;5052501;28;20047;-75
2023/06/09 03:48:09;;;;;;;1999.90;999.90;;;;;;;23.79;38.70;101585.63;5052639;28;20123;-74
2023/06/09 03:50:38;;;;;;;1999.90;999.90;;;;;;;22.85;40.14;101584.16;5052288;28;20021;-75
2023/06/09 03:53:03;;;;;;;1999.90;999.90;;;;;;;22.91;39.90;101590.13;5068295;28;20039;-75
2023/06/09 03:55:31;;;;;;;1999.90;999.90;;;;;;;22.09;40.97;101584.25;5052503;28;20044;-75
2023/06/09 03:57:57;;;;;;;1999.90;999.90;;;;;;;23.92;38.33;101580.50;5051775;28;20031;-75
2023/06/09 04:00:22;;;;;;;1999.90;999.90;;;;;;;23.62;38.86;101594.53;5046168;28;20121;-75
2023/06/09 04:02:47;;;;;;;1999.90;999.90;;;;;;;23.64;38.84;101577.47;5050245;28;20488;-75
2023/06/09 04:05:13;;;;;;;1999.90;999.90;;;;;;;23.39;39.18;101575.25;5050040;28;20102;-75
2023/06/09 04:07:39;;;;;;;1999.90;999.90;;;;;;;23.52;38.66;101573.69;5031748;28;20041;-75
2023/06/09 04:10:05;;;;;;;1999.90;999.90;;;;;;;22.87;40.08;101576.97;5037542;28;20462;-75
2023/06/09 04:12:31;;;;;;;1999.90;999.90;;;;;;;23.62;38.48;101573.19;5056564;28;20029;-75
2023/06/09 04:14:56;;;;;;;1999.90;999.90;;;;;;;23.44;38.44;101583.88;5050688;28;20063;-75
2023/06/09 04:17:24;;;;;;;1999.90;999.90;;;;;;;24.12;37.75;101572.25;5038065;28;20380;-74
2023/06/09 04:19:51;;;;;;;1999.90;999.90;;;;;;;23.97;37.83;101573.09;5034938;28;20037;-74
2023/06/09 04:22:16;;;;;;;1999.90;999.90;;;;;;;22.79;39.93;101581.81;5038235;28;20032;-75
2023/06/09 04:24:42;;;;;;;1999.90;999.90;;;;;;;22.73;39.88;101579.44;5051553;28;20035;-75
2023/06/09 04:27:08;;;;;;;1999.90;999.90;;;;;;;23.46;38.44;101579.31;5051675;28;20024;-75
2023/06/09 04:29:37;;;;;;;1999.90;999.90;;;;;;;23.83;38.15;101582.69;5052434;28;20028;-74
2023/06/09 04:32:07;;;;;;;1999.90;999.90;;;;;;;23.66;37.73;101593.44;5052083;28;20031;-75
2023/06/09 04:34:38;;;;;;;1999.90;999.90;;;;;;;24.12;37.78;101593.63;5047060;28;20465;-75
2023/06/09 04:37:07;;;;;;;1999.90;999.90;;;;;;;24.50;37.02;101595.94;5045872;28;20162;-75
2023/06/09 04:39:33;;;;;;;1999.90;999.90;;;;;;;25.05;36.62;101593.72;5032612;28;20078;-75
2023/06/09 04:42:03;;;;;;;1999.90;999.90;;;;;;;24.56;35.92;101594.75;5035966;28;20444;-75
2023/06/09 04:44:29;;;;;;;1999.90;999.90;;;;;;;24.34;37.28;101601.28;5036729;28;20063;-75
2023/06/09 04:46:54;;;;;;;1999.90;999.90;;;;;;;25.05;36.07;101599.09;5034960;28;20127;-75
2023/06/09 04:49:20;;;;;;;1999.90;999.90;;;;;;;24.32;36.88;101602.34;5037343;28;20044;-75
2023/06/09 04:51:47;;;;;;;1999.90;999.90;;;;;;;25.82;34.41;101591.75;5044527;28;20028;-73
2023/06/09 04:54:16;;;;;;;1999.90;999.90;;;;;;;25.80;34.65;101584.78;5056588;28;20028;-74
2023/06/09 04:56:43;;;;;;;1999.90;999.90;;;;;;;26.16;33.73;101596.81;5076538;28;20031;-74
2023/06/09 04:59:10;;;;;;;1999.90;999.90;;;;;;;27.25;31.74;101589.59;5068149;28;20040;-75
2023/06/09 05:01:37;;;;;;;1999.90;999.90;;;;;;;26.37;32.57;101583.88;5073172;28;20074;-75
2023/06/09 05:04:02;;;;;;;1999.90;999.90;;;;;;;27.57;30.95;101586.56;5073392;28;20017;-75
2023/06/09 05:06:27;;;;;;;1999.90;999.90;;;;;;;27.74;31.25;101587.19;5062163;28;20031;-75
2023/06/09 05:08:55;;;;;;;1999.90;999.90;;;;;;;26.24;33.38;101592.69;5073967;28;20016;-75
2023/06/09 05:11:20;;;;;;;1999.90;999.90;;;;;;;27.22;31.58;101592.50;5075156;28;20095;-74
2023/06/09 05:13:46;;;;;;;1999.90;999.90;;;;;;;26.19;33.03;101600.16;5074771;28;20028;-74
2023/06/09 05:16:12;;;;;;;1999.90;999.90;;;;;;;25.93;33.94;101611.66;5075472;28;20031;-75
2023/06/09 05:18:37;;;;;;;1999.90;999.90;;;;;;;24.69;35.87;101619.00;5069356;28;20024;-74
2023/06/09 05:21:03;;;;;;;1999.90;999.90;;;;;;;25.47;34.84;101610.88;5054638;28;20024;-74
2023/06/09 05:23:28;;;;;;;1999.90;999.90;;;;;;;23.20;39.16;101613.56;5070745;28;20020;-75
2023/06/09 05:25:54;;;;;;;1999.90;999.90;;;;;;;23.09;39.08;101618.53;5064769;28;20834;-75
2023/06/09 05:28:19;;;;;;;1999.90;999.90;;;;;;;23.93;37.89;101622.28;5072185;28;20099;-75
2023/06/09 05:30:45;;;;;;;1999.90;999.90;;;;;;;24.56;37.24;101614.31;5072476;28;20028;-74
2023/06/09 05:33:10;;;;;;;1999.90;999.90;;;;;;;25.08;36.07;101614.94;5054903;28;20020;-75
2023/06/09 05:35:36;;;;;;;1999.90;999.90;;;;;;;24.14;37.96;101621.13;5068981;28;20024;-75
2023/06/09 05:38:01;;;;;;;1999.90;999.90;;;;;;;24.71;36.50;101622.44;5092778;28;20031;-75
2023/06/09 05:40:26;;;;;;;1999.90;999.90;;;;;;;25.12;36.10;101616.47;5077931;28;20103;-75
2023/06/09 05:42:52;;;;;;;1999.90;999.90;;;;;;;24.04;37.73;101622.53;5069014;28;20538;-75
2023/06/09 05:45:17;;;;;;;1999.90;999.90;;;;;;;23.75;38.68;101621.44;5059806;28;20020;-75
2023/06/09 05:47:42;;;;;;;1999.90;999.90;;;;;;;24.47;37.46;101614.84;5074247;28;20020;-75
2023/06/09 05:50:09;;;;;;;1999.90;999.90;;;;;;;24.41;37.92;101612.50;5092061;28;20365;-74
2023/06/09 05:52:37;;;;;;;1999.90;999.90;;;;;;;24.03;38.17;101616.34;5073461;28;20020;-74
2023/06/09 05:55:03;;;;;;;1999.90;999.90;;;;;;;23.53;38.97;101618.09;5058089;28;20067;-75
2023/06/09 05:57:32;;;;;;;1999.90;999.90;;;;;;;24.53;37.53;101619.81;5074232;28;20107;-74
2023/06/09 05:59:58;;;;;;;1999.90;999.90;;;;;;;25.12;37.01;101620.97;5073194;28;20031;-74
2023/06/09 06:02:24;;;;;;;1999.90;999.90;;;;;;;23.70;38.72;101616.34;5074023;28;20024;-75
2023/06/09 06:04:49;;;;;;;1999.90;999.90;;;;;;;25.01;37.45;101608.25;5069892;28;20032;-74
2023/06/09 06:07:15;;;;;;;1999.90;999.90;;;;;;;25.26;36.66;101612.13;5054138;28;20021;-75
2023/06/09 06:09:40;;;;;;;1999.90;999.90;;;;;;;25.01;37.03;101619.78;5082182;28;20062;-75
2023/06/09 06:12:06;;;;;;;1999.90;999.90;;;;;;;25.31;36.83;101620.75;5072985;28;20024;-74
2023/06/09 06:14:32;;;;;;;1999.90;999.90;;;;;;;26.75;34.83;101604.66;5077215;28;20078;-75
2023/06/09 06:16:57;;;;;;;1999.90;999.90;;;;;;;27.19;33.44;101603.47;5058980;28;20070;-75
2023/06/09 06:19:23;;;;;;;1999.90;999.90;;;;;;;28.53;30.89;101606.56;5080792;28;20064;-74
2023/06/09 06:21:48;;;;;;;1999.90;999.90;;;;;;;30.33;28.84;101611.59;5053570;28;20480;-75
2023/06/09 06:24:14;;;;;;;1999.90;999.90;;;;;;;29.83;29.23;101611.97;5088608;28;20071;-74
2023/06/09 06:26:39;;;;;;;1999.90;999.90;;;;;;;31.06;27.53;101606.47;5072968;28;20032;-75
2023/06/09 06:29:04;;;;;;;1999.90;999.90;;;;;;;32.58;25.85;101605.72;5054116;28;20047;-75
2023/06/09 06:31:30;;;;;;;1999.90;999.90;;;;;;;33.31;25.81;101612.56;5052967;28;20544;-75
2023/06/09 06:33:57;;;;;;;1999.90;999.90;;;;;;;32.73;25.50;101611.59;5070450;28;20032;-75
2023/06/09 06:36:23;;;;;;;1999.90;999.90;;;;;;;33.97;25.23;101614.34;5054022;28;20066;-75
2023/06/09 06:38:48;;;;;;;1999.90;999.90;;;;;;;33.52;25.03;101623.19;5053731;28;20400;-75
2023/06/09 06:41:14;;;;;;;1999.90;999.90;;;;;;;33.38;24.45;101618.25;5069317;28;20111;-74
2023/06/09 06:43:43;;;;;;;1999.90;999.90;;;;;;;32.77;25.44;101617.59;5065513;28;20020;-74
2023/06/09 06:46:11;;;;;;;1999.90;999.90;;;;;;;32.11;26.25;101619.00;5091223;28;20106;-74
2023/06/09 06:48:38;;;;;;;1999.90;999.90;;;;;;;32.92;25.53;101618.88;5073813;28;20492;-74
2023/06/09 06:51:05;;;;;;;1999.90;999.90;;;;;;;34.89;24.71;101613.47;5084778;28;20552;-75
2023/06/09 06:53:30;;;;;;;1999.90;999.90;;;;;;;35.17;22.83;101611.47;5090895;28;20024;-75
2023/06/09 06:55:56;;;;;;;1999.90;999.90;;;;;;;35.75;23.03;101610.00;5067644;28;20105;-75
2023/06/09 06:58:21;;;;;;;1999.90;999.90;;;;;;;34.70;22.88;101603.63;5072787;28;20031;-75
2023/06/09 07:00:46;;;;;;;1999.90;999.90;;;;;;;35.89;22.40;101604.97;5070369;28;20048;-75
2023/06/09 07:03:12;;;;;;;1999.90;999.90;;;;;;;35.79;21.83;101610.50;5057619;28;20408;-75
2023/06/09 07:05:38;;;;;;;1999.90;999.90;;;;;;;35.21;23.19;101612.88;5061724;28;20043;-75
2023/06/09 07:08:03;;;;;;;1999.90;999.90;;;;;;;37.42;20.76;101610.09;5061922;28;20025;-75
2023/06/09 07:10:29;;;;;;;1999.90;999.90;;;;;;;36.69;22.05;101612.66;5072941;28;20031;-76
2023/06/09 07:12:54;;;;;;;1999.90;999.90;;;;;;;37.46;21.12;101608.72;5085455;28;20028;-75
2023/06/09 07:15:20;;;;;;;1999.90;999.90;;;;;;;36.34;21.64;101614.66;5070294;28;20477;-74
2023/06/09 07:17:45;;;;;;;1999.90;999.90;;;;;;;35.35;22.07;101616.88;5052590;28;20094;-75
2023/06/09 07:20:11;;;;;;;1999.90;999.90;;;;;;;37.21;21.39;101614.22;5057605;28;20025;-75
2023/06/09 07:22:41;;;;;;;1999.90;999.90;;;;;;;35.56;22.54;101621.97;5071768;28;20032;-75
2023/06/09 07:25:08;;;;;;;1999.90;999.90;;;;;;;36.57;21.60;101609.41;5073733;28;20448;-74
2023/06/09 07:27:33;;;;;;;1999.90;999.90;;;;;;;36.17;21.95;101613.72;5065813;28;20032;-75
2023/06/09 07:29:58;;;;;;;1999.90;999.90;;;;;;;35.81;22.50;101619.38;5090329;28;20423;-76
2023/06/09 07:32:24;;;;;;;1999.90;999.90;;;;;;;37.14;21.84;101621.38;5090821;28;20508;-75
2023/06/09 07:34:50;;;;;;;1999.90;999.90;;;;;;;37.46;20.80;101616.91;5071593;28;20531;-73
2023/06/09 07:37:15;;;;;;;1999.90;999.90;;;;;;;37.12;21.46;101612.50;5073207;28;20028;-75
2023/06/09 07:39:41;;;;;;;1999.90;999.90;;;;;;;37.68;20.64;101607.97;5072112;28;20024;-75
2023/06/09 07:42:06;;;;;;;1999.90;999.90;;;;;;;37.57;21.20;101618.41;5071106;28;20024;-74
2023/06/09 07:44:32;;;;;;;1999.90;999.90;;;;;;;38.58;19.97;101603.09;5072551;28;20115;-74
2023/06/09 07:46:57;;;;;;;1999.90;999.90;;;;;;;38.85;20.10;101618.06;5072156;28;20020;-74
2023/06/09 07:49:22;;;;;;;1999.90;999.90;;;;;;;38.53;19.88;101621.91;5072013;28;20038;-75
2023/06/09 07:51:49;;;;;;;1999.90;999.90;;;;;;;38.84;20.42;101619.13;5071643;28;20024;-75
2023/06/09 07:54:15;;;;;;;1999.90;999.90;;;;;;;39.25;20.22;101620.63;5090548;28;20024;-73
2023/06/09 07:56:41;;;;;;;1999.90;999.90;;;;;;;39.96;18.90;101616.59;5071317;28;20031;-73
2023/06/09 07:59:07;;;;;;;1999.90;999.90;;;;;;;40.06;18.89;101621.78;5089459;28;20036;-73
2023/06/09 08:01:32;;;;;;;1999.90;999.90;;;;;;;39.81;19.04;101619.34;5090209;28;20028;-72
2023/06/09 08:04:01;;;;;;;1999.90;999.90;;;;;;;37.93;20.35;101626.97;5088961;28;20109;-74
2023/06/09 08:06:28;;;;;;;1999.90;999.90;;;;;;;37.23;22.10;101620.31;5090405;28;20385;-73
2023/06/09 08:08:53;;;;;;;1999.90;999.90;;;;;;;37.15;22.18;101614.88;5072317;28;20020;-73
2023/06/09 08:11:19;;;;;;;1999.90;999.90;;;;;;;37.88;20.55;101615.78;5090166;28;20048;-73
2023/06/09 08:13:44;;;;;;;1999.90;999.90;;;;;;;37.40;21.49;101609.41;5072305;28;20030;-73
2023/06/09 08:16:10;;;;;;;1999.90;999.90;;;;;;;39.23;20.32;101606.31;5076048;28;20123;-73
2023/06/09 08:18:35;;;;;;;1999.90;999.90;;;;;;;39.66;19.66;101603.78;5092981;28;20084;-74
2023/06/09 08:21:01;;;;;;;1999.90;999.90;;;;;;;38.37;20.60;101611.09;5076159;28;20395;-73
2023/06/09 08:23:26;;;;;;;1999.90;999.90;;;;;;;37.74;21.39;101611.00;5094234;28;20027;-72
2023/06/09 08:25:51;;;;;;;1999.90;999.90;;;;;;;40.69;19.60;101595.50;5074692;28;20332;-73
2023/06/09 08:28:17;;;;;;;1999.90;999.90;;;;;;;39.81;20.07;101602.94;5094303;28;20024;-74
2023/06/09 08:30:42;;;;;;;1999.90;999.90;;;;;;;41.57;18.04;101597.00;5074424;28;20032;-73
2023/06/09 08:33:08;;;;;;;1999.90;999.90;;;;;;;42.31;17.95;101602.78;5063589;28;20365;-73
2023/06/09 08:35:33;;;;;;;1999.90;999.90;;;;;;;41.50;18.97;101601.59;5073572;28;20116;-73
2023/06/09 08:37:59;;;;;;;1999.90;999.90;;;;;;;41.68;18.34;101596.41;5054496;28;20028;-73
2023/06/09 08:40:25;;;;;;;1999.90;999.90;;;;;;;42.49;17.46;101599.44;5055615;28;20071;-73
2023/06/09 08:42:54;;;;;;;1999.90;999.90;;;;;;;41.34;17.87;101598.13;5054826;28;20078;-73
2023/06/09 08:45:21;;;;;;;1999.90;999.90;;;;;;;39.86;19.28;101600.47;5055047;28;20373;-74
2023/06/09 08:47:53;;;;;;;1999.90;999.90;;;;;;;41.44;18.41;101599.66;5057826;28;20031;-73
2023/06/09 08:50:20;;;;;;;1999.90;999.90;;;;;;;42.17;18.90;101596.41;5077230;28;20020;-74
2023/06/09 08:52:47;;;;;;;1999.90;999.90;;;;;;;42.67;17.76;101599.66;5058042;28;20141;-74
2023/06/09 08:55:14;;;;;;;1999.90;999.90;;;;;;;42.33;18.22;101604.28;5065118;28;20044;-74
2023/06/09 08:57:40;;;;;;;1999.90;999.90;;;;;;;41.41;18.73;101602.81;5070246;28;20056;-74
2023/06/09 09:00:09;;;;;;;1999.90;999.90;;;;;;;43.09;17.35;101598.59;5042473;28;20033;-74
2023/06/09 09:02:35;;;;;;;1999.90;999.90;;;;;;;42.60;18.05;101603.47;5054455;28;20480;-73
2023/06/09 09:05:01;;;;;;;1999.90;999.90;;;;;;;42.86;17.15;101599.88;5045133;28;20029;-74
2023/06/09 09:07:27;;;;;;;1999.90;999.90;;;;;;;43.44;16.63;101601.06;5066964;28;20036;-74
2023/06/09 09:09:53;;;;;;;1999.90;999.90;;;;;;;42.81;16.92;101596.94;5072159;28;20120;-74
2023/06/09 09:12:18;;;;;;;1999.90;999.90;;;;;;;43.20;16.90;101598.81;5054432;28;20131;-74
2023/06/09 09:14:44;;;;;;;1999.90;999.90;;;;;;;43.95;17.30;101597.50;5053600;28;20480;-74
2023/06/09 09:17:10;;;;;;;1999.90;999.90;;;;;;;43.35;17.51;101593.06;5045594;28;20029;-74
2023/06/09 09:19:36;;;;;;;1999.90;999.90;;;;;;;42.94;17.42;101594.16;5034006;28;20047;-74
2023/06/09 09:22:06;;;;;;;1999.90;999.90;;;;;;;43.61;16.96;101595.97;5033863;28;20032;-74
2023/06/09 09:24:38;;;;;;;1999.90;999.90;;;;;;;45.11;16.00;101585.44;5035231;28;20025;-74
2023/06/09 09:27:15;;;;;;;1999.90;999.90;;;;;;;42.77;17.20;101591.00;5034156;28;20021;-73
2023/06/09 09:29:41;;;;;;;1999.90;999.90;;;;;;;42.95;17.57;101584.88;5034041;28;20431;-74
2023/06/09 09:32:07;;;;;;;1999.90;999.90;;;;;;;41.43;18.51;101595.25;5052230;28;20021;-74
2023/06/09 09:34:32;;;;;;;1999.90;999.90;;;;;;;43.70;16.84;101578.97;5033758;28;20029;-74
2023/06/09 09:36:58;;;;;;;1999.90;999.90;;;;;;;44.29;16.63;101584.41;5033754;28;20309;-74
2023/06/09 09:39:24;;;;;;;1999.90;999.90;;;;;;;43.08;18.44;101573.03;5034256;28;20349;-73
2023/06/09 09:42:07;;;;;;;1999.90;999.90;;;;;;;43.10;17.28;101578.31;5032856;28;20120;-74
2023/06/09 09:44:46;;;;;;;1999.90;999.90;;;;;;;43.26;17.97;101577.84;5051996;28;20040;-74
2023/06/09 09:47:15;;;;;;;1999.90;999.90;;;;;;;42.86;17.57;101578.72;5034262;28;20104;-74
2023/06/09 09:49:59;;;;;;;1999.90;999.90;;;;;;;42.98;18.10;101572.59;5032791;28;20393;-74
2023/06/09 09:52:29;;;;;;;1999.90;999.90;;;;;;;44.73;16.08;101570.75;5033601;28;20056;-74
2023/06/09 09:54:58;;;;;;;1999.90;999.90;;;;;;;44.41;16.14;101579.03;5077487;28;20055;-74
2023/06/09 09:57:28;;;;;;;1999.90;999.90;;;;;;;44.98;16.16;101573.44;5066342;28;20530;-74
2023/06/09 09:59:55;;;;;;;1999.90;999.90;;;;;;;46.70;14.64;101572.47;5071072;28;20390;-74
2023/06/09 10:02:24;;;;;;;632.33;590.20;;;;;;;46.79;15.26;101575.72;5052788;28;20055;-74
2023/06/09 10:04:50;;;;;;;800.38;744.05;;;;;;;45.90;15.37;101571.78;5070819;28;20039;-74
2023/06/09 10:07:21;;;;;;;490.90;461.02;;;;;;;43.95;16.91;101581.00;5053719;28;20052;-74
2023/06/09 10:09:53;;;;;;;518.05;485.30;;;;;;;45.26;16.57;101572.13;5085888;28;20090;-74
2023/06/09 10:12:19;;;;;;;603.83;563.70;;;;;;;43.64;17.11;101570.75;5053686;28;20086;-74
2023/06/09 10:14:46;;;;;;;625.55;583.55;;;;;;;45.17;15.75;101565.22;5071180;28;20029;-74
2023/06/09 10:17:13;;;;;;;616.50;574.92;;;;;;;44.13;16.60;101565.66;5052300;28;20040;-74
2023/06/09 10:19:40;;;;;;;655.95;611.15;;;;;;;43.95;17.07;101564.47;5053018;28;20458;-74
2023/06/09 10:22:06;;;;;;;659.80;614.80;;;;;;;43.67;17.14;101571.16;5071109;28;20027;-74
2023/06/09 10:24:33;;;;;;;625.35;582.55;;;;;;;42.54;17.94;101569.44;5070364;28;20499;-74
2023/06/09 10:26:59;;;;;;;673.45;626.55;;;;;;;44.76;16.79;101563.94;5070782;28;20472;-73
2023/06/09 10:29:25;;;;;;;685.33;637.97;;;;;;;45.15;15.39;101564.59;5086723;28;20020;-74
2023/06/09 10:31:53;;;;;;;638.25;594.97;;;;;;;41.84;18.04;101567.81;5052324;28;20024;-74
2023/06/09 10:34:19;;;;;;;644.83;600.60;;;;;;;43.89;16.56;101559.88;5053143;28;20032;-74
2023/06/09 10:36:45;;;;;;;667.63;620.85;;;;;;;43.64;17.55;101555.09;5070333;28;20024;-74
2023/06/09 10:39:18;;;;;;;660.45;614.33;;;;;;;40.21;19.97;101551.41;5051906;28;20033;-74
2023/06/09 10:41:52;;;;;;;717.83;666.40;;;;;;;42.35;18.67;101541.75;5070182;28;20030;-74
2023/06/09 10:44:24;;;;;;;695.63;646.00;;;;;;;42.16;18.96;101556.25;5052829;28;20020;-74
2023/06/09 10:46:52;;;;;;;679.53;631.78;;;;;;;44.24;16.64;101545.66;5078685;28;20040;-65